createdAt,value
2019-04-10T00:00:51.367Z,15.00
2019-04-10T00:03:42.030Z,15.20
2019-04-10T00:06:30.178Z,15.50
2019-04-10T00:09:19.547Z,16.27
2019-04-10T00:12:10.112Z,16.85
2019-04-10T00:15:03.073Z,17.10
2019-04-10T00:17:51.959Z,16.02
2019-04-10T00:20:40.640Z,16.45
2019-04-10T00:23:31.082Z,15.60
2019-04-10T00:26:19.999Z,15.25
2019-04-10T00:29:08.832Z,15.58
2019-04-10T00:32:00.200Z,16.07
2019-04-10T00:34:47.676Z,15.75
2019-04-10T00:37:37.363Z,15.70
2019-04-10T00:40:27.605Z,16.20
2019-04-10T00:43:17.103Z,15.65
2019-04-10T00:46:06.161Z,15.93
2019-04-10T00:48:56.273Z,15.47
2019-04-10T00:51:45.812Z,15.63
2019-04-10T00:54:35.166Z,16.60
2019-04-10T00:57:23.677Z,16.00
2019-04-10T01:00:12.826Z,15.87
2019-04-10T01:03:02.126Z,15.40
2019-04-10T01:05:51.341Z,15.20
2019-04-10T01:08:40.635Z,15.63
2019-04-10T01:11:29.154Z,16.30
2019-04-10T01:14:17.886Z,15.40
2019-04-10T01:17:08.382Z,15.60
2019-04-10T01:19:57.222Z,15.53
2019-04-10T01:22:47.692Z,15.50
2019-04-10T01:25:36.865Z,14.85
2019-04-10T01:28:25.134Z,14.83
2019-04-10T01:31:14.967Z,14.98
2019-04-10T01:34:05.348Z,14.90
2019-04-10T01:36:54.700Z,15.32
2019-04-10T01:39:43.649Z,14.75
2019-04-10T01:42:32.415Z,15.65
2019-04-10T01:45:21.729Z,16.30
2019-04-10T01:48:10.036Z,15.45
2019-04-10T01:50:59.056Z,16.27
2019-04-10T01:53:48.246Z,16.20
2019-04-10T01:56:37.334Z,17.17
2019-04-10T01:59:27.318Z,18.00
2019-04-10T02:02:25.333Z,18.10
2019-04-10T02:05:14.481Z,18.40
2019-04-10T02:08:09.134Z,17.00
2019-04-10T02:10:53.675Z,17.12
2019-04-10T02:13:43.228Z,17.35
2019-04-10T02:16:32.656Z,17.80
2019-04-10T02:19:21.923Z,17.48
2019-04-10T02:22:11.772Z,21.33
2019-04-10T02:25:00.847Z,23.32
2019-04-10T02:27:50.901Z,22.85
2019-04-10T02:30:43.118Z,24.07
2019-04-10T02:33:31.448Z,25.72
2019-04-10T02:36:21.273Z,24.07
2019-04-10T02:39:20.640Z,23.70
2019-04-10T02:42:02.864Z,22.53
2019-04-10T02:44:52.152Z,24.27
2019-04-10T02:47:41.205Z,24.52
2019-04-10T02:50:31.157Z,22.67
2019-04-10T02:53:21.564Z,24.05
2019-04-10T02:56:11.787Z,24.12
2019-04-10T02:59:00.820Z,23.00
2019-04-10T03:01:49.789Z,24.10
2019-04-10T03:04:40.360Z,24.00
2019-04-10T03:07:31.909Z,25.40
2019-04-10T03:10:30.059Z,24.63
2019-04-10T03:13:13.591Z,23.77
2019-04-10T03:16:03.144Z,22.73
2019-04-10T03:18:52.924Z,23.87
2019-04-10T03:21:42.960Z,21.83
2019-04-10T03:24:31.738Z,21.87
2019-04-10T03:27:20.550Z,22.07
2019-04-10T03:30:10.933Z,20.72
2019-04-10T03:33:29.313Z,20.12
2019-04-10T03:36:15.918Z,21.40
2019-04-10T03:39:07.677Z,22.50
2019-04-10T03:41:56.788Z,20.73
2019-04-10T03:44:45.619Z,21.07
2019-04-10T03:47:34.265Z,21.80
2019-04-10T03:50:23.687Z,20.90
2019-04-10T03:53:12.565Z,20.40
2019-04-10T03:56:01.236Z,20.13
2019-04-10T03:58:51.428Z,19.65
2019-04-10T04:01:40.950Z,18.57
2019-04-10T04:04:30.052Z,17.55
2019-04-10T04:07:18.765Z,17.35
2019-04-10T04:10:09.341Z,16.77
2019-04-10T04:13:00.005Z,16.60
2019-04-10T04:15:50.561Z,15.70
2019-04-10T04:18:39.486Z,17.30
2019-04-10T04:21:28.678Z,16.05
2019-04-10T04:24:17.842Z,15.30
2019-04-10T04:27:07.624Z,15.70
2019-04-10T04:29:57.418Z,14.40
2019-04-10T04:32:46.153Z,14.50
2019-04-10T04:35:36.622Z,13.30
2019-04-10T04:38:27.706Z,13.43
2019-04-10T04:41:17.406Z,13.40
2019-04-10T04:44:06.638Z,12.58
2019-04-10T04:46:56.909Z,12.47
2019-04-10T04:49:46.730Z,11.57
2019-04-10T04:52:35.580Z,12.45
2019-04-10T04:55:24.440Z,11.40
2019-04-10T04:58:13.789Z,11.55
2019-04-10T05:01:02.646Z,11.88
2019-04-10T05:03:52.626Z,11.70
2019-04-10T05:06:41.853Z,22.57
2019-04-10T05:09:35.577Z,36.50
2019-04-10T05:12:20.559Z,41.73
2019-04-10T05:15:10.911Z,45.12
2019-04-10T05:17:59.940Z,46.90
2019-04-10T05:20:50.858Z,44.60
2019-04-10T05:23:39.689Z,45.40
2019-04-10T05:26:29.876Z,45.03
2019-04-10T05:29:19.562Z,45.35
2019-04-10T05:32:09.297Z,46.18
2019-04-10T05:34:58.563Z,45.07
2019-04-10T05:37:47.789Z,41.20
2019-04-10T05:40:36.709Z,43.10
2019-04-10T05:43:26.168Z,44.60
2019-04-10T05:46:14.874Z,43.27
2019-04-10T05:49:04.440Z,42.15
2019-04-10T05:51:56.379Z,42.98
2019-04-10T05:54:45.509Z,42.97
2019-04-10T05:57:34.905Z,44.25
2019-04-10T06:00:25.009Z,43.30
2019-04-10T06:03:14.539Z,43.00
2019-04-10T06:06:04.158Z,44.45
2019-04-10T06:08:52.995Z,42.75
2019-04-10T06:11:44.015Z,42.15
2019-04-10T06:14:32.464Z,41.80
2019-04-10T06:17:22.602Z,41.08
2019-04-10T06:20:14.006Z,42.53
2019-04-10T06:23:03.209Z,42.30
2019-04-10T06:25:52.153Z,42.43
2019-04-10T06:28:40.875Z,41.98
2019-04-10T06:31:30.487Z,42.58
2019-04-10T06:34:20.566Z,40.33
2019-04-10T06:37:10.171Z,43.25
2019-04-10T06:40:10.707Z,42.78
2019-04-10T06:42:53.113Z,41.00
2019-04-10T06:45:39.939Z,41.08
2019-04-10T06:48:29.029Z,41.58
2019-04-10T06:51:19.874Z,39.92
2019-04-10T06:54:11.043Z,40.63
2019-04-10T06:59:08.817Z,42.20
2019-04-10T07:02:11.436Z,41.55
2019-04-10T07:04:53.095Z,41.60
2019-04-10T07:07:48.533Z,40.43
2019-04-10T07:10:39.899Z,40.73
2019-04-10T07:13:19.737Z,41.35
2019-04-10T07:16:10.119Z,40.65
2019-04-10T07:19:03.079Z,40.97
2019-04-10T07:21:49.212Z,40.80
2019-04-10T07:24:41.198Z,40.03
2019-04-10T07:27:32.487Z,39.40
2019-04-10T07:30:23.598Z,42.15
2019-04-10T07:33:09.763Z,42.40
2019-04-10T07:35:59.235Z,40.00
2019-04-10T07:38:48.907Z,39.83
2019-04-10T07:41:37.871Z,41.88
2019-04-10T07:44:27.183Z,41.35
2019-04-10T07:47:15.490Z,40.80
2019-04-10T07:50:08.754Z,41.05
2019-04-10T07:52:58.106Z,40.03
2019-04-10T07:56:00.366Z,41.53
2019-04-10T07:58:37.769Z,42.00
2019-04-10T08:01:26.446Z,42.33
2019-04-10T08:04:15.275Z,42.67
2019-04-10T08:07:03.721Z,41.40
2019-04-10T08:09:52.374Z,43.15
2019-04-10T08:12:47.586Z,41.02
2019-04-10T08:15:31.584Z,40.73
2019-04-10T08:18:21.206Z,40.88
2019-04-10T08:21:09.637Z,43.45
2019-04-10T08:23:58.603Z,42.65
2019-04-10T08:26:47.838Z,42.95
2019-04-10T08:29:36.762Z,40.95
2019-04-10T08:32:25.757Z,44.13
2019-04-10T08:35:15.449Z,42.62
2019-04-10T08:38:05.500Z,44.65
2019-04-10T08:40:54.553Z,43.80
2019-04-10T08:43:43.585Z,43.92
2019-04-10T08:46:33.561Z,43.98
2019-04-10T08:49:22.935Z,44.88
2019-04-10T08:52:12.268Z,45.03
2019-04-10T08:55:03.754Z,46.90
2019-04-10T08:57:52.639Z,46.18
2019-04-10T09:00:41.120Z,46.48
2019-04-10T09:03:30.926Z,45.98
2019-04-10T09:06:20.782Z,46.37
2019-04-10T09:09:09.773Z,46.80
2019-04-10T09:11:59.720Z,45.40
2019-04-10T09:14:49.592Z,45.03
2019-04-10T09:17:39.556Z,46.05
2019-04-10T09:20:28.900Z,43.70
2019-04-10T09:23:29.813Z,43.52
2019-04-10T09:26:08.844Z,44.70
2019-04-10T09:28:58.880Z,45.20
2019-04-10T09:31:48.145Z,44.42
2019-04-10T09:34:37.972Z,43.98
2019-04-10T09:37:28.221Z,45.17
2019-04-10T09:40:16.822Z,45.35
2019-04-10T09:43:05.946Z,43.68
2019-04-10T09:45:55.729Z,44.95
2019-04-10T09:48:44.959Z,45.70
2019-04-10T09:51:34.195Z,43.43
2019-04-10T09:54:23.995Z,45.43
2019-04-10T09:57:13.310Z,44.40
2019-04-10T10:00:02.864Z,46.63
2019-04-10T10:02:52.881Z,44.85
2019-04-10T10:05:42.465Z,46.17
2019-04-10T10:08:31.780Z,46.30
2019-04-10T10:11:24.653Z,45.50
2019-04-10T10:14:13.288Z,46.25
2019-04-10T10:17:02.220Z,45.30
2019-04-10T10:19:53.525Z,46.73
2019-04-10T10:22:41.499Z,45.73
2019-04-10T10:25:30.985Z,46.23
2019-04-10T10:28:20.821Z,46.53
2019-04-10T10:31:09.922Z,45.50
2019-04-10T10:33:59.098Z,47.95
2019-04-10T10:36:50.647Z,46.70
2019-04-10T10:39:38.985Z,46.65
2019-04-10T10:42:28.348Z,47.17
2019-04-10T10:45:18.636Z,49.38
2019-04-10T10:48:08.613Z,47.30
2019-04-10T10:50:58.247Z,47.40
2019-04-10T10:53:48.292Z,46.83
2019-04-10T10:56:38.222Z,46.37
2019-04-10T10:59:27.366Z,46.28
2019-04-10T11:02:17.091Z,47.62
2019-04-10T11:05:07.168Z,46.30
2019-04-10T11:07:57.327Z,47.13
2019-04-10T11:10:50.457Z,47.53
2019-04-10T11:13:37.127Z,49.30
2019-04-10T11:16:27.169Z,49.95
2019-04-10T11:19:17.274Z,49.23
2019-04-10T11:22:07.476Z,49.80
2019-04-10T11:24:57.540Z,50.15
2019-04-10T11:27:47.542Z,50.98
2019-04-10T11:30:36.496Z,50.48
2019-04-10T11:33:26.325Z,50.92
2019-04-10T11:36:17.441Z,50.08
2019-04-10T11:41:59.402Z,51.15
2019-04-10T11:44:49.334Z,51.18
2019-04-10T11:47:38.841Z,52.33
2019-04-10T11:50:28.599Z,49.70
2019-04-10T11:53:19.111Z,51.90
2019-04-10T11:56:10.384Z,50.20
2019-04-10T11:58:59.330Z,50.08
2019-04-10T12:01:50.692Z,50.17
2019-04-10T12:04:48.019Z,50.33
2019-04-10T12:13:10.350Z,50.58
2019-04-10T12:15:59.477Z,47.88
2019-04-10T12:18:48.880Z,49.03
2019-04-10T12:21:38.001Z,48.10
2019-04-10T12:24:27.311Z,47.05
2019-04-10T12:27:16.669Z,49.30
2019-04-10T12:30:07.936Z,47.33
2019-04-10T12:32:56.851Z,47.98
2019-04-10T12:35:45.766Z,50.17
2019-04-10T12:38:34.386Z,48.20
2019-04-10T12:41:23.519Z,48.85
2019-04-10T12:44:13.597Z,46.98
2019-04-10T12:47:03.540Z,47.27
2019-04-10T12:49:58.226Z,46.23
2019-04-10T12:52:49.344Z,48.05
2019-04-10T12:55:38.958Z,48.00
2019-04-10T12:58:28.863Z,47.27
2019-04-10T13:01:18.431Z,47.80
2019-04-10T13:04:07.529Z,47.63
2019-04-10T13:06:57.001Z,45.07
2019-04-10T13:09:46.323Z,45.58
2019-04-10T13:12:36.018Z,45.50
2019-04-10T13:15:27.687Z,48.90
2019-04-10T13:18:16.936Z,46.95
2019-04-10T13:21:06.346Z,46.10
2019-04-10T13:23:57.279Z,46.20
2019-04-10T13:26:50.256Z,45.90
2019-04-10T13:29:39.209Z,45.70
2019-04-10T13:32:28.123Z,45.23
2019-04-10T13:35:17.957Z,44.73
2019-04-10T13:38:07.329Z,44.20
2019-04-10T13:40:56.359Z,45.77
2019-04-10T13:43:47.779Z,43.17
2019-04-10T13:46:37.285Z,42.53
2019-04-10T13:49:26.180Z,42.05
2019-04-10T13:52:16.136Z,43.00
2019-04-10T13:55:05.712Z,43.13
2019-04-10T13:57:55.034Z,42.20
2019-04-10T14:00:43.716Z,41.10
2019-04-10T14:03:32.706Z,42.27
2019-04-10T14:06:21.819Z,41.23
2019-04-10T14:09:30.064Z,41.10
2019-04-10T14:12:08.446Z,41.18
2019-04-10T14:14:57.369Z,42.40
2019-04-10T14:17:46.652Z,42.98
2019-04-10T14:20:35.593Z,43.70
2019-04-10T14:23:28.631Z,43.85
2019-04-10T14:26:45.852Z,43.00
2019-04-10T14:29:25.185Z,44.55
2019-04-10T14:32:20.797Z,44.83
2019-04-10T14:35:10.385Z,45.73
2019-04-10T14:38:01.012Z,44.75
2019-04-10T14:40:50.076Z,46.02
2019-04-10T14:43:39.756Z,45.63
2019-04-10T14:46:28.905Z,46.37
2019-04-10T14:49:18.749Z,44.85
2019-04-10T14:52:08.725Z,46.80
2019-04-10T14:54:57.684Z,46.27
2019-04-10T14:57:47.960Z,45.87
2019-04-10T15:00:41.160Z,45.90
2019-04-10T15:03:30.695Z,47.30
2019-04-10T15:06:22.734Z,46.45
2019-04-10T15:09:25.570Z,47.78
2019-04-10T15:12:12.303Z,47.58
2019-04-10T15:15:01.750Z,46.35
2019-04-10T15:17:51.173Z,47.40
2019-04-10T15:20:40.242Z,48.97
2019-04-10T15:23:29.619Z,46.63
2019-04-10T15:26:18.210Z,47.55
2019-04-10T15:29:07.837Z,48.73
2019-04-10T15:31:57.823Z,47.60
2019-04-10T15:34:48.269Z,49.25
2019-04-10T15:37:37.420Z,48.60
2019-04-10T15:40:27.662Z,48.52
2019-04-10T15:43:16.805Z,49.20
2019-04-10T15:46:06.221Z,49.45
2019-04-10T15:48:55.161Z,49.83
2019-04-10T15:51:44.157Z,50.80
2019-04-10T15:54:33.985Z,52.05
2019-04-10T15:57:23.250Z,50.80
2019-04-10T16:00:12.842Z,49.75
2019-04-10T16:03:01.433Z,50.10
2019-04-10T16:05:50.567Z,50.25
2019-04-10T16:08:40.789Z,50.70
2019-04-10T16:11:47.062Z,50.00
2019-04-10T16:14:35.954Z,53.40
2019-04-10T16:17:44.026Z,52.95
2019-04-10T16:20:33.976Z,52.13
2019-04-10T16:23:29.088Z,52.95
2019-04-10T16:26:18.775Z,53.30
2019-04-10T16:29:08.281Z,53.20
2019-04-10T16:31:56.845Z,54.65
2019-04-10T16:34:47.103Z,53.60
2019-04-10T16:37:36.153Z,54.75
2019-04-10T16:40:24.905Z,54.65
2019-04-10T16:43:13.991Z,55.80
2019-04-10T16:46:02.862Z,56.10
2019-04-10T16:48:51.267Z,56.95
2019-04-10T16:51:40.582Z,57.45
2019-04-10T16:54:29.299Z,59.55
2019-04-10T16:57:18.516Z,59.65
2019-04-10T17:00:08.158Z,57.53
2019-04-10T17:02:57.070Z,57.20
2019-04-10T17:05:46.307Z,57.47
2019-04-10T17:08:37.340Z,58.45
2019-04-10T17:11:27.104Z,60.43
2019-04-10T17:14:17.474Z,59.60
2019-04-10T17:17:06.888Z,59.77
2019-04-10T17:19:57.306Z,57.88
2019-04-10T17:22:48.581Z,59.08
2019-04-10T17:25:36.010Z,60.33
2019-04-10T17:28:26.524Z,60.78
2019-04-10T17:31:18.219Z,60.30
2019-04-10T17:34:06.790Z,58.85
2019-04-10T17:36:57.035Z,57.50
2019-04-10T17:39:45.630Z,57.55
2019-04-10T17:42:34.556Z,58.35
2019-04-10T17:45:25.839Z,57.47
2019-04-10T17:48:15.645Z,55.05
2019-04-10T17:51:05.843Z,58.42
2019-04-10T17:53:55.914Z,59.05
2019-04-10T17:56:46.513Z,58.20
2019-04-10T17:59:35.832Z,59.65
2019-04-10T18:02:25.450Z,60.15
2019-04-10T18:05:14.820Z,60.38
2019-04-10T18:08:05.106Z,60.80
2019-04-10T18:10:56.024Z,60.52
2019-04-10T18:13:45.035Z,63.25
2019-04-10T18:16:33.930Z,63.52
2019-04-10T18:19:22.597Z,62.35
2019-04-10T18:22:12.174Z,64.23
2019-04-10T18:25:01.548Z,65.10
2019-04-10T18:27:50.074Z,64.97
2019-04-10T18:30:39.171Z,64.10
2019-04-10T18:33:29.230Z,65.10
2019-04-10T18:36:17.579Z,65.12
2019-04-10T18:39:12.801Z,64.47
2019-04-10T18:42:01.294Z,65.95
2019-04-10T18:44:50.336Z,65.53
2019-04-10T18:47:39.418Z,66.45
2019-04-10T18:50:28.678Z,62.88
2019-04-10T18:53:19.195Z,66.70
2019-04-10T18:56:09.083Z,65.25
2019-04-10T18:59:08.569Z,63.78
2019-04-10T19:02:20.448Z,62.85
2019-04-10T19:05:19.408Z,63.70
2019-04-10T19:08:12.775Z,62.88
2019-04-10T19:11:10.609Z,61.65
2019-04-10T19:13:51.018Z,61.08
2019-04-10T19:16:41.486Z,61.42
2019-04-10T19:19:30.652Z,60.20
2019-04-10T19:22:20.327Z,61.50
2019-04-10T19:25:10.483Z,60.03
2019-04-10T19:28:00.343Z,61.77
2019-04-10T19:31:09.640Z,63.85
2019-04-10T19:33:49.156Z,61.70
2019-04-10T19:36:38.105Z,63.53
2019-04-10T19:39:27.368Z,60.35
2019-04-10T19:42:17.483Z,61.60
2019-04-10T19:45:09.836Z,62.13
2019-04-10T19:47:59.003Z,64.03
2019-04-10T19:50:47.990Z,62.10
2019-04-10T19:53:37.486Z,61.98
2019-04-10T19:56:26.745Z,60.65
2019-04-10T19:59:16.693Z,62.45
2019-04-10T20:02:06.693Z,61.60
2019-04-10T20:04:56.982Z,64.75
2019-04-10T20:07:47.531Z,65.67
2019-04-10T20:10:37.370Z,62.78
2019-04-10T20:13:26.954Z,63.08
2019-04-10T20:16:15.689Z,66.00
2019-04-10T20:19:05.488Z,62.75
2019-04-10T20:21:56.484Z,64.23
2019-04-10T20:24:47.224Z,62.80
2019-04-10T20:27:36.206Z,63.20
2019-04-10T20:30:28.075Z,63.98
2019-04-10T20:33:18.676Z,64.37
2019-04-10T20:36:08.913Z,63.20
2019-04-10T20:38:59.003Z,63.55
2019-04-10T20:41:53.222Z,62.13
2019-04-10T20:44:38.766Z,64.97
2019-04-10T20:47:28.006Z,63.23
2019-04-10T20:50:17.461Z,64.00
2019-04-10T20:53:07.489Z,64.95
2019-04-10T20:55:56.131Z,63.55
2019-04-10T20:58:45.053Z,65.75
2019-04-10T21:01:35.095Z,65.20
2019-04-10T21:04:23.897Z,66.00
2019-04-10T21:07:12.796Z,60.67
2019-04-10T21:10:01.283Z,63.30
2019-04-10T21:12:50.433Z,64.97
2019-04-10T21:15:40.096Z,64.35
2019-04-10T21:18:29.248Z,65.03
2019-04-10T21:21:18.601Z,62.67
2019-04-10T21:24:07.761Z,64.72
2019-04-10T21:26:56.969Z,67.10
2019-04-10T21:30:07.499Z,67.25
2019-04-10T21:33:03.882Z,66.70
2019-04-10T21:35:54.069Z,66.80
2019-04-10T21:38:42.834Z,65.97
2019-04-10T21:41:32.679Z,66.70
2019-04-10T21:44:21.783Z,66.80
2019-04-10T21:47:11.098Z,66.65
2019-04-10T21:50:00.407Z,66.53
2019-04-10T21:52:49.827Z,64.43
2019-04-10T21:55:39.511Z,64.35
2019-04-10T21:58:28.742Z,66.63
2019-04-10T22:01:18.569Z,66.77
2019-04-10T22:04:08.207Z,65.22
2019-04-10T22:07:14.028Z,66.70
2019-04-10T22:10:19.940Z,65.52
2019-04-10T22:13:09.035Z,64.62
2019-04-10T22:15:59.690Z,65.10
2019-04-10T22:18:48.150Z,63.68
2019-04-10T22:21:37.611Z,62.70
2019-04-10T22:24:26.878Z,62.90
2019-04-10T22:27:17.006Z,63.92
2019-04-10T22:30:08.325Z,64.05
2019-04-10T22:33:03.286Z,61.83
2019-04-10T22:35:52.609Z,62.20
2019-04-10T22:38:41.861Z,62.45
2019-04-10T22:41:32.718Z,61.25
2019-04-10T22:44:32.470Z,59.93
2019-04-10T22:47:11.290Z,60.50
2019-04-10T22:50:00.839Z,60.35
2019-04-10T22:52:50.706Z,58.87
2019-04-10T22:55:40.253Z,58.95
2019-04-10T22:58:29.221Z,62.95
2019-04-10T23:01:18.621Z,58.20
2019-04-10T23:04:08.015Z,60.38
2019-04-10T23:06:57.712Z,60.05
2019-04-10T23:09:47.098Z,61.58
2019-04-10T23:12:35.628Z,60.50
2019-04-10T23:15:25.120Z,60.63
2019-04-10T23:18:15.120Z,59.35
2019-04-10T23:21:04.146Z,59.27
2019-04-10T23:23:52.728Z,60.25
2019-04-10T23:26:41.638Z,60.80
2019-04-10T23:29:30.950Z,59.13
2019-04-10T23:32:19.481Z,59.00
2019-04-10T23:35:07.894Z,60.58
2019-04-10T23:37:57.290Z,60.83
2019-04-10T23:40:45.840Z,60.05
2019-04-10T23:43:35.669Z,59.88
2019-04-10T23:46:24.773Z,59.10
2019-04-10T23:49:13.375Z,58.15
2019-04-10T23:52:01.831Z,58.90
2019-04-10T23:54:51.367Z,60.50
2019-04-10T23:57:41.129Z,59.90
